Time;durP1;ratioP1;P1;durP2;ratioP2;P2;SDS_P1;SDS_P2;PMS_P1;PMS_P2;Temp;Humidity;BMP_temperature;BMP_pressure;BME280_temperature;BME280_humidity;BME280_pressure;Samples;Min_cycle;Max_cycle;Signal;HPM_P1;HPM_P2
2023/06/30 00:00:51;;;;;;;5.93;2.78;;;22.90;67.20;;;;;;4972108;28;20614;-58
2023/06/30 00:03:16;;;;;;;4.53;2.75;;;22.90;67.20;;;;;;4973324;28;20043;-57
2023/06/30 00:05:42;;;;;;;4.20;2.47;;;22.90;67.20;;;;;;4973265;28;20050;-57
2023/06/30 00:08:08;;;;;;;4.15;2.55;;;22.90;67.10;;;;;;4972223;28;20418;-57
2023/06/30 00:10:35;;;;;;;4.03;2.50;;;22.90;67.10;;;;;;4973076;28;20043;-57
2023/06/30 00:13:00;;;;;;;4.82;2.63;;;22.90;67.20;;;;;;4990573;28;20050;-57
2023/06/30 00:15:26;;;;;;;4.63;2.47;;;22.90;67.10;;;;;;4991061;28;20050;-57
2023/06/30 00:17:52;;;;;;;4.88;2.65;;;22.90;67.00;;;;;;4991842;28;20453;-57
2023/06/30 00:20:18;;;;;;;4.75;2.50;;;22.90;67.10;;;;;;4992432;28;20070;-58
2023/06/30 00:22:44;;;;;;;5.15;2.70;;;22.90;67.00;;;;;;4992038;28;20074;-57
2023/06/30 00:25:10;;;;;;;5.28;2.90;;;22.80;66.90;;;;;;4992003;28;20053;-57
2023/06/30 00:27:35;;;;;;;4.35;2.30;;;22.90;67.00;;;;;;4992516;28;20463;-58
2023/06/30 00:30:01;;;;;;;3.83;2.28;;;22.90;67.00;;;;;;4990042;28;20081;-57
2023/06/30 00:32:31;;;;;;;3.67;2.05;;;22.90;67.00;;;;;;4992129;28;20058;-57
2023/06/30 00:34:57;;;;;;;5.38;2.60;;;22.90;67.00;;;;;;4992072;28;20474;-57
2023/06/30 00:37:22;;;;;;;4.47;2.55;;;22.80;66.90;;;;;;4990219;28;20069;-57
2023/06/30 00:39:48;;;;;;;4.25;2.58;;;22.80;66.90;;;;;;4991742;28;20049;-57
2023/06/30 00:42:15;;;;;;;4.20;2.38;;;22.80;66.80;;;;;;4992380;28;20048;-57
2023/06/30 00:44:40;;;;;;;5.00;2.45;;;22.80;66.90;;;;;;4991251;28;20048;-57
2023/06/30 00:47:06;;;;;;;4.10;2.42;;;22.80;66.80;;;;;;4991786;28;20050;-57
2023/06/30 00:49:32;;;;;;;4.15;2.28;;;22.80;66.80;;;;;;4990432;28;20043;-57
2023/06/30 00:51:58;;;;;;;4.00;2.15;;;22.80;66.90;;;;;;4973888;28;20042;-57
2023/06/30 00:54:24;;;;;;;3.58;2.47;;;22.80;66.80;;;;;;4992483;28;20085;-57
2023/06/30 00:56:49;;;;;;;3.65;2.13;;;22.80;66.80;;;;;;4988936;28;20050;-58
2023/06/30 00:59:15;;;;;;;4.25;2.05;;;22.80;66.80;;;;;;4994250;28;20046;-57
2023/06/30 01:01:56;;;;;;;4.78;2.20;;;22.80;66.80;;;;;;4995820;28;20043;-58
2023/06/30 01:04:58;;;;;;;3.83;2.05;;;22.80;66.80;;;;;;4993998;28;20046;-57
2023/06/30 01:07:50;;;;;;;4.80;2.83;;;22.80;66.70;;;;;;4994578;28;20046;-57
2023/06/30 01:10:19;;;;;;;4.50;2.22;;;22.80;66.70;;;;;;4995105;28;20042;-57
2023/06/30 01:12:44;;;;;;;4.88;2.00;;;22.80;66.70;;;;;;4993064;28;20046;-57
2023/06/30 01:15:11;;;;;;;4.28;2.50;;;22.80;66.70;;;;;;4994779;28;20061;-57
2023/06/30 01:17:41;;;;;;;4.50;2.38;;;22.80;66.60;;;;;;4994362;28;20039;-57
2023/06/30 01:20:10;;;;;;;4.40;2.10;;;22.80;66.70;;;;;;4994531;28;20117;-57
2023/06/30 01:22:40;;;;;;;3.60;1.95;;;22.70;66.60;;;;;;4988822;28;20038;-57
2023/06/30 01:25:08;;;;;;;3.65;1.90;;;22.80;66.60;;;;;;4973604;28;21169;-57
2023/06/30 01:27:36;;;;;;;3.83;1.90;;;22.80;66.60;;;;;;4958354;28;20057;-57
2023/06/30 01:30:03;;;;;;;3.15;1.88;;;22.70;66.50;;;;;;4974253;28;20558;-57
2023/06/30 01:32:29;;;;;;;2.90;1.73;;;22.80;66.50;;;;;;4973365;28;20051;-57
2023/06/30 01:34:55;;;;;;;4.18;1.70;;;22.80;66.50;;;;;;4975576;28;20063;-58
2023/06/30 01:37:20;;;;;;;3.67;1.98;;;22.80;66.50;;;;;;4975303;28;20057;-57
2023/06/30 01:39:46;;;;;;;3.45;1.75;;;22.80;66.40;;;;;;4974883;28;20050;-57
2023/06/30 01:42:12;;;;;;;3.83;1.90;;;22.80;66.30;;;;;;4993938;28;20046;-60
2023/06/30 01:44:37;;;;;;;3.13;1.83;;;22.70;66.20;;;;;;4993366;28;20047;-57
2023/06/30 01:47:04;;;;;;;3.92;1.95;;;22.70;66.20;;;;;;4975991;28;20046;-58
2023/06/30 01:49:29;;;;;;;4.38;2.13;;;22.70;66.30;;;;;;4993896;28;20078;-57
2023/06/30 01:51:55;;;;;;;3.45;1.92;;;22.70;66.30;;;;;;4993040;28;20089;-57
2023/06/30 01:54:21;;;;;;;3.95;1.88;;;22.70;66.20;;;;;;4994367;28;20507;-57
2023/06/30 01:56:48;;;;;;;3.30;1.70;;;22.70;66.30;;;;;;4993382;28;20084;-57
2023/06/30 01:59:14;;;;;;;3.08;1.90;;;22.70;66.20;;;;;;4994804;28;20061;-57
2023/06/30 02:01:39;;;;;;;3.85;2.00;;;22.70;66.20;;;;;;4993618;28;20149;-57
2023/06/30 02:04:05;;;;;;;3.33;1.73;;;22.70;66.20;;;;;;4995826;28;20379;-61
2023/06/30 02:06:31;;;;;;;3.60;1.50;;;22.70;66.20;;;;;;4982743;28;20043;-57
2023/06/30 02:08:56;;;;;;;3.20;1.70;;;22.70;66.20;;;;;;4973793;28;20503;-57
2023/06/30 02:11:22;;;;;;;3.47;1.70;;;22.70;66.30;;;;;;4974654;28;20062;-57
2023/06/30 02:13:48;;;;;;;4.70;1.98;;;22.70;66.20;;;;;;4974888;28;20049;-57
2023/06/30 02:16:13;;;;;;;4.72;2.00;;;22.70;66.10;;;;;;4974485;28;20047;-57
2023/06/30 02:18:39;;;;;;;3.17;1.80;;;22.70;66.10;;;;;;4974872;28;20057;-57
2023/06/30 02:21:05;;;;;;;2.72;1.42;;;22.70;66.10;;;;;;4974077;28;20039;-57
2023/06/30 02:23:34;;;;;;;3.67;1.80;;;22.60;66.00;;;;;;4974548;28;20521;-57
2023/06/30 02:25:59;;;;;;;3.05;1.50;;;22.70;66.10;;;;;;4974698;28;20078;-58
2023/06/30 02:28:25;;;;;;;4.18;1.75;;;22.70;66.00;;;;;;4973891;28;20085;-58
2023/06/30 02:30:51;;;;;;;3.72;1.80;;;22.70;65.90;;;;;;4974371;28;20049;-57
2023/06/30 02:33:17;;;;;;;2.58;1.50;;;22.70;65.90;;;;;;4974791;28;20062;-57
2023/06/30 02:35:43;;;;;;;2.63;1.30;;;22.70;65.90;;;;;;4974088;28;20085;-57
2023/06/30 02:38:08;;;;;;;3.47;1.70;;;22.60;65.80;;;;;;4974133;28;20499;-57
2023/06/30 02:40:36;;;;;;;3.20;1.80;;;22.60;65.80;;;;;;4974718;28;20046;-57
2023/06/30 02:43:01;;;;;;;2.55;1.50;;;22.60;65.80;;;;;;4973580;28;20058;-57
2023/06/30 02:45:27;;;;;;;2.63;1.40;;;22.60;65.80;;;;;;4974186;28;20047;-57
2023/06/30 02:47:53;;;;;;;4.32;1.52;;;22.60;65.80;;;;;;4974395;28;20073;-57
2023/06/30 02:50:22;;;;;;;3.50;1.83;;;22.60;65.70;;;;;;4974028;28;20051;-57
2023/06/30 02:52:47;;;;;;;2.63;1.50;;;22.60;65.80;;;;;;4974108;28;20479;-57
2023/06/30 02:55:13;;;;;;;3.03;1.60;;;22.60;65.90;;;;;;4974301;28;20057;-57
2023/06/30 02:57:38;;;;;;;3.60;1.55;;;22.60;65.90;;;;;;4973715;28;20043;-56
2023/06/30 03:00:06;;;;;;;3.22;1.40;;;22.60;65.80;;;;;;4973203;28;20042;-57
2023/06/30 03:02:31;;;;;;;3.30;1.50;;;22.60;65.70;;;;;;4974243;28;20043;-57
2023/06/30 03:04:57;;;;;;;3.65;1.42;;;22.60;65.80;;;;;;4972871;28;20094;-57
2023/06/30 03:07:22;;;;;;;3.55;1.40;;;22.60;66.30;;;;;;4974088;28;20046;-57
2023/06/30 03:09:48;;;;;;;3.78;1.70;;;22.60;65.70;;;;;;4973635;28;20042;-57
2023/06/30 03:12:13;;;;;;;3.28;1.40;;;22.60;65.60;;;;;;4973047;28;20129;-57
2023/06/30 03:14:39;;;;;;;3.47;1.45;;;22.60;65.60;;;;;;4974098;28;20142;-57
2023/06/30 03:17:05;;;;;;;2.88;1.45;;;22.60;65.60;;;;;;4973690;28;20055;-57
2023/06/30 03:19:30;;;;;;;2.97;1.33;;;22.60;65.60;;;;;;4972453;28;20047;-57
2023/06/30 03:21:56;;;;;;;5.22;1.50;;;22.60;65.60;;;;;;4973074;28;20043;-57
2023/06/30 03:24:22;;;;;;;2.75;1.30;;;22.50;65.50;;;;;;4972928;28;20039;-57
2023/06/30 03:26:47;;;;;;;2.85;1.17;;;22.60;65.60;;;;;;4973772;28;20074;-57
2023/06/30 03:29:13;;;;;;;3.47;1.30;;;22.50;65.50;;;;;;4973600;28;20426;-57
2023/06/30 03:31:39;;;;;;;3.47;1.30;;;22.60;65.60;;;;;;4971263;28;20467;-58
2023/06/30 03:34:04;;;;;;;4.95;1.35;;;22.50;65.50;;;;;;4982545;28;20125;-57
2023/06/30 03:36:30;;;;;;;3.38;1.30;;;22.50;65.50;;;;;;4992739;28;20493;-58
2023/06/30 03:38:55;;;;;;;3.33;1.20;;;22.50;65.50;;;;;;4991640;28;20062;-57
2023/06/30 03:41:21;;;;;;;2.50;1.38;;;22.50;65.50;;;;;;4992031;28;20482;-57
2023/06/30 03:43:47;;;;;;;2.70;1.27;;;22.50;65.50;;;;;;4990476;28;20410;-58
2023/06/30 03:46:12;;;;;;;4.15;1.33;;;22.50;65.50;;;;;;4991130;28;20049;-57
2023/06/30 03:48:38;;;;;;;2.33;1.20;;;22.50;65.50;;;;;;4992053;28;20188;-57
2023/06/30 03:51:03;;;;;;;2.75;1.40;;;22.50;65.50;;;;;;4991783;28;20097;-57
2023/06/30 03:53:29;;;;;;;2.45;1.10;;;22.50;65.50;;;;;;4991736;28;20049;-57
2023/06/30 03:55:54;;;;;;;2.28;0.98;;;22.50;65.40;;;;;;4992162;28;20050;-57
2023/06/30 03:58:20;;;;;;;3.42;1.20;;;22.50;65.40;;;;;;4992600;28;20070;-57
2023/06/30 04:00:46;;;;;;;2.65;1.30;;;22.50;65.40;;;;;;4989236;28;20069;-58
2023/06/30 04:03:11;;;;;;;2.65;1.10;;;22.50;65.40;;;;;;4987697;28;20526;-57
2023/06/30 04:05:37;;;;;;;2.70;1.20;;;22.50;65.40;;;;;;4991978;28;20482;-57
2023/06/30 04:08:03;;;;;;;3.13;1.30;;;22.50;65.40;;;;;;4990759;28;20046;-57
2023/06/30 04:10:29;;;;;;;2.60;1.40;;;22.50;65.40;;;;;;4992175;28;20073;-58
2023/06/30 04:12:54;;;;;;;5.07;1.20;;;22.50;65.40;;;;;;4991253;28;20042;-57
2023/06/30 04:15:20;;;;;;;2.70;1.30;;;22.50;65.40;;;;;;4991618;28;20108;-57
2023/06/30 04:17:46;;;;;;;2.80;1.10;;;22.50;65.40;;;;;;4991371;28;20406;-57
2023/06/30 04:20:15;;;;;;;2.97;1.38;;;22.50;65.40;;;;;;4992291;28;20073;-57
2023/06/30 04:22:44;;;;;;;2.83;1.20;;;22.50;65.40;;;;;;4991664;28;20050;-57
2023/06/30 04:25:10;;;;;;;2.70;1.17;;;22.50;65.40;;;;;;4991407;28;20038;-58
2023/06/30 04:27:36;;;;;;;2.83;1.20;;;22.50;65.50;;;;;;4990979;28;20125;-57
2023/06/30 04:30:01;;;;;;;2.65;1.23;;;22.50;65.60;;;;;;4991855;28;20129;-57
2023/06/30 04:32:28;;;;;;;2.35;1.08;;;22.50;65.60;;;;;;4991698;28;20081;-57
2023/06/30 04:34:54;;;;;;;2.03;1.10;;;22.50;65.70;;;;;;4995151;28;20102;-57
2023/06/30 04:37:20;;;;;;;2.22;0.98;;;22.50;65.70;;;;;;4995755;28;20065;-57
2023/06/30 04:39:47;;;;;;;2.42;0.90;;;22.50;65.70;;;;;;4996469;28;20537;-57
2023/06/30 04:42:14;;;;;;;2.72;1.08;;;22.50;65.70;;;;;;4995331;28;20053;-57
2023/06/30 04:44:42;;;;;;;2.67;1.05;;;22.50;65.70;;;;;;4996199;28;20105;-58
2023/06/30 04:47:08;;;;;;;2.30;1.10;;;22.50;65.60;;;;;;4994976;28;20050;-57
2023/06/30 04:49:34;;;;;;;2.05;1.00;;;22.50;65.60;;;;;;4983415;28;20045;-57
2023/06/30 04:51:59;;;;;;;3.03;1.13;;;22.50;65.60;;;;;;4994651;28;20073;-57
2023/06/30 04:54:25;;;;;;;3.83;1.10;;;22.50;65.60;;;;;;4995800;28;20050;-57
2023/06/30 04:56:50;;;;;;;1.75;0.82;;;22.50;65.60;;;;;;4990255;28;20542;-57
2023/06/30 04:59:16;;;;;;;2.25;0.90;;;22.50;65.60;;;;;;4995917;28;20406;-57
2023/06/30 05:01:42;;;;;;;4.07;1.02;;;22.50;65.60;;;;;;4991321;28;20035;-57
2023/06/30 05:04:08;;;;;;;2.50;1.08;;;22.50;65.70;;;;;;4975020;28;20047;-58
2023/06/30 05:06:33;;;;;;;2.25;0.95;;;22.50;65.70;;;;;;4976121;28;20081;-58
2023/06/30 05:08:59;;;;;;;2.53;1.00;;;22.50;65.60;;;;;;4975850;28;20081;-58
2023/06/30 05:11:24;;;;;;;3.45;1.08;;;22.50;65.50;;;;;;4977084;28;20049;-57
2023/06/30 05:13:50;;;;;;;2.67;0.95;;;22.50;65.50;;;;;;4977844;28;20046;-57
2023/06/30 05:16:16;;;;;;;4.78;1.15;;;22.50;65.40;;;;;;4994975;28;20553;-57
2023/06/30 05:18:41;;;;;;;2.03;1.27;;;22.50;65.40;;;;;;4975505;28;20060;-57
2023/06/30 05:21:08;;;;;;;3.53;1.08;;;22.50;65.40;;;;;;4975413;28;20466;-57
2023/06/30 05:23:34;;;;;;;2.38;0.98;;;22.50;65.20;;;;;;4975573;28;20407;-57
2023/06/30 05:25:59;;;;;;;4.18;1.23;;;22.60;65.10;;;;;;4984338;28;20516;-57
2023/06/30 05:28:25;;;;;;;4.13;1.20;;;22.60;65.00;;;;;;4993413;28;20066;-57
2023/06/30 05:30:50;;;;;;;5.40;1.00;;;22.60;65.10;;;;;;4994666;28;20108;-57
2023/06/30 05:33:16;;;;;;;5.53;1.05;;;22.60;65.10;;;;;;4993639;28;20098;-57
2023/06/30 05:35:42;;;;;;;4.32;1.10;;;22.60;65.20;;;;;;4995111;28;20058;-57
2023/06/30 05:38:07;;;;;;;3.78;1.10;;;22.60;65.20;;;;;;4993138;28;20382;-66
2023/06/30 05:40:33;;;;;;;4.20;1.15;;;22.60;65.10;;;;;;4993275;28;20074;-57
2023/06/30 05:43:01;;;;;;;4.65;1.30;;;22.60;65.10;;;;;;4994183;28;20045;-57
2023/06/30 05:45:27;;;;;;;5.00;1.33;;;22.70;65.10;;;;;;4993375;28;20054;-57
2023/06/30 05:47:53;;;;;;;4.78;1.25;;;22.70;64.70;;;;;;4983234;28;20458;-57
2023/06/30 05:50:21;;;;;;;4.60;1.15;;;22.70;64.30;;;;;;4975090;28;20050;-56
2023/06/30 05:52:48;;;;;;;6.50;0.93;;;22.70;64.00;;;;;;4974173;28;20090;-57
2023/06/30 05:55:13;;;;;;;5.22;1.05;;;22.70;63.60;;;;;;4974688;28;20473;-56
2023/06/30 05:57:42;;;;;;;3.30;0.90;;;22.70;63.60;;;;;;4974659;28;20043;-56
2023/06/30 06:00:08;;;;;;;3.67;1.08;;;22.70;63.60;;;;;;4974183;28;20427;-56
2023/06/30 06:02:34;;;;;;;4.57;1.00;;;22.70;63.60;;;;;;4975174;28;20101;-56
